createdAt,value
2018-11-21T00:01:05.099Z,33.03
2018-11-21T00:03:33.420Z,32.90
2018-11-21T00:06:01.802Z,33.90
2018-11-21T00:08:30.159Z,34.90
2018-11-21T00:10:58.893Z,33.70
2018-11-21T00:13:27.281Z,34.57
2018-11-21T00:15:56.009Z,33.13
2018-11-21T00:18:24.387Z,34.10
2018-11-21T00:20:53.141Z,32.90
2018-11-21T00:23:21.786Z,33.20
2018-11-21T00:25:50.458Z,33.43
2018-11-21T00:28:18.826Z,33.07
2018-11-21T00:30:47.190Z,34.50
2018-11-21T00:33:15.581Z,32.33
2018-11-21T00:35:43.941Z,34.00
2018-11-21T00:38:12.361Z,33.80
2018-11-21T00:40:40.718Z,32.90
2018-11-21T00:43:09.152Z,34.83
2018-11-21T00:45:37.502Z,34.33
2018-11-21T00:48:05.847Z,34.73
2018-11-21T00:50:34.207Z,34.60
2018-11-21T00:53:02.564Z,35.80
2018-11-21T00:55:31.322Z,36.77
2018-11-21T00:57:59.703Z,34.90
2018-11-21T01:00:28.073Z,36.93
2018-11-21T01:02:56.439Z,35.30
2018-11-21T01:05:24.874Z,35.03
2018-11-21T01:07:53.266Z,36.00
2018-11-21T01:10:21.591Z,37.60
2018-11-21T01:12:50.275Z,35.63
2018-11-21T01:15:18.610Z,35.13
2018-11-21T01:17:46.981Z,36.13
2018-11-21T01:20:15.330Z,37.00
2018-11-21T01:22:43.791Z,35.00
2018-11-21T01:25:12.164Z,37.03
2018-11-21T01:27:40.518Z,35.93
2018-11-21T01:30:09.430Z,35.27
2018-11-21T01:32:38.105Z,35.40
2018-11-21T01:35:07.006Z,35.53
2018-11-21T01:37:35.454Z,35.37
2018-11-21T01:40:04.059Z,35.67
2018-11-21T01:42:32.440Z,35.03
2018-11-21T01:45:01.187Z,35.73
2018-11-21T01:47:29.871Z,33.00
2018-11-21T01:49:58.592Z,35.67
2018-11-21T01:52:27.275Z,33.93
2018-11-21T01:54:56.407Z,36.13
2018-11-21T01:57:24.768Z,34.23
2018-11-21T01:59:53.495Z,35.23
2018-11-21T02:02:21.892Z,32.47
2018-11-21T02:04:50.250Z,34.33
2018-11-21T02:07:18.629Z,34.83
2018-11-21T02:09:46.970Z,34.57
2018-11-21T02:12:15.352Z,34.83
2018-11-21T02:14:43.826Z,33.93
2018-11-21T02:17:12.180Z,35.07
2018-11-21T02:19:40.559Z,36.37
2018-11-21T02:22:09.143Z,36.10
2018-11-21T02:24:37.506Z,35.10
2018-11-21T02:27:06.213Z,36.30
2018-11-21T02:29:34.568Z,38.13
2018-11-21T02:32:03.024Z,37.07
2018-11-21T02:34:31.384Z,38.73
2018-11-21T02:36:59.762Z,36.93
2018-11-21T02:39:28.110Z,38.50
2018-11-21T02:41:56.481Z,38.83
2018-11-21T02:44:24.867Z,38.63
2018-11-21T02:46:53.227Z,38.77
2018-11-21T02:49:21.602Z,40.80
2018-11-21T02:51:50.378Z,39.00
2018-11-21T02:54:18.811Z,41.07
2018-11-21T02:57:19.046Z,41.40
2018-11-21T02:59:47.958Z,39.53
2018-11-21T03:02:16.328Z,39.93
2018-11-21T03:04:44.684Z,42.50
2018-11-21T03:07:13.131Z,43.03
2018-11-21T03:09:41.791Z,40.60
2018-11-21T03:12:10.420Z,42.17
2018-11-21T03:14:39.161Z,42.37
2018-11-21T03:17:07.534Z,42.00
2018-11-21T03:19:35.993Z,43.97
2018-11-21T03:22:04.363Z,42.77
2018-11-21T03:24:32.735Z,43.03
2018-11-21T03:27:01.370Z,43.40
2018-11-21T03:29:29.748Z,44.57
2018-11-21T03:31:58.159Z,42.57
2018-11-21T03:34:26.604Z,43.40
2018-11-21T03:36:55.591Z,42.43
2018-11-21T03:39:25.103Z,45.97
2018-11-21T03:41:53.473Z,45.13
2018-11-21T03:44:21.834Z,46.43
2018-11-21T03:46:50.263Z,46.33
2018-11-21T03:49:18.718Z,45.40
2018-11-21T03:51:47.072Z,45.83
2018-11-21T03:54:15.440Z,48.20
2018-11-21T03:56:44.120Z,45.60
2018-11-21T03:59:12.522Z,46.63
2018-11-21T04:01:41.219Z,49.70
2018-11-21T04:04:09.904Z,47.97
2018-11-21T04:06:38.623Z,49.83
2018-11-21T04:09:11.771Z,48.57
2018-11-21T04:11:40.625Z,49.87
2018-11-21T04:14:09.455Z,48.90
2018-11-21T04:16:37.800Z,46.57
2018-11-21T04:19:06.201Z,46.70
2018-11-21T04:21:34.567Z,50.57
2018-11-21T04:24:02.940Z,48.37
2018-11-21T04:26:31.304Z,45.40
2018-11-21T04:28:59.972Z,44.10
2018-11-21T04:31:28.326Z,42.23
2018-11-21T04:33:56.671Z,43.97
2018-11-21T04:36:25.342Z,43.37
2018-11-21T04:38:53.716Z,43.03
2018-11-21T04:41:22.393Z,43.37
2018-11-21T04:43:50.748Z,42.07
2018-11-21T04:46:19.179Z,41.93
2018-11-21T04:48:48.313Z,42.73
2018-11-21T04:51:17.014Z,42.43
2018-11-21T04:53:45.359Z,42.23
2018-11-21T04:56:14.155Z,42.60
2018-11-21T04:58:42.581Z,42.60
2018-11-21T05:01:10.953Z,41.60
2018-11-21T05:03:39.613Z,41.03
2018-11-21T05:06:07.989Z,43.60
2018-11-21T05:08:36.350Z,41.27
2018-11-21T05:11:04.717Z,41.67
2018-11-21T05:13:33.468Z,43.03
2018-11-21T05:16:01.838Z,40.23
2018-11-21T05:18:30.393Z,41.37
2018-11-21T05:20:59.104Z,42.90
2018-11-21T05:23:27.902Z,42.90
2018-11-21T05:25:56.281Z,42.93
2018-11-21T05:28:25.195Z,45.00
2018-11-21T05:30:53.854Z,42.57
2018-11-21T05:33:22.841Z,43.83
2018-11-21T05:35:51.251Z,45.03
2018-11-21T05:38:19.621Z,45.13
2018-11-21T05:40:47.987Z,44.60
2018-11-21T05:43:16.794Z,43.27
2018-11-21T05:45:45.486Z,43.30
2018-11-21T05:48:13.869Z,44.90
2018-11-21T05:50:42.225Z,48.00
2018-11-21T05:53:10.945Z,45.10
2018-11-21T05:55:39.711Z,45.90
2018-11-21T05:58:08.427Z,46.10
2018-11-21T06:00:37.132Z,46.33
2018-11-21T06:03:05.659Z,47.47
2018-11-21T06:05:34.042Z,45.50
2018-11-21T06:08:02.423Z,45.93
2018-11-21T06:10:31.175Z,46.17
2018-11-21T06:12:59.550Z,47.13
2018-11-21T06:15:27.933Z,45.77
2018-11-21T06:17:56.321Z,48.53
2018-11-21T06:20:24.827Z,49.43
2018-11-21T06:22:53.278Z,49.27
2018-11-21T06:25:22.077Z,49.57
2018-11-21T06:27:50.594Z,49.57
2018-11-21T06:30:18.970Z,55.10
2018-11-21T06:32:47.355Z,56.07
2018-11-21T06:35:15.759Z,60.47
2018-11-21T06:37:44.499Z,59.00
2018-11-21T06:40:14.463Z,59.47
2018-11-21T06:43:02.104Z,56.13
2018-11-21T06:45:30.545Z,52.27
2018-11-21T06:47:58.920Z,54.33
2018-11-21T06:50:27.302Z,53.80
2018-11-21T06:55:25.455Z,55.73
2018-11-21T06:57:53.843Z,53.70
2018-11-21T07:00:22.570Z,57.63
2018-11-21T07:02:50.957Z,53.87
2018-11-21T07:05:19.406Z,53.37
2018-11-21T07:07:47.836Z,54.00
2018-11-21T07:10:16.993Z,51.73
2018-11-21T07:12:45.987Z,55.37
2018-11-21T07:15:14.378Z,54.97
2018-11-21T07:17:42.732Z,54.37
2018-11-21T07:20:12.919Z,53.50
2018-11-21T07:22:41.649Z,56.60
2018-11-21T07:25:16.070Z,56.97
2018-11-21T07:27:44.655Z,55.97
2018-11-21T07:30:14.454Z,54.57
2018-11-21T07:32:42.866Z,53.67
2018-11-21T07:35:17.539Z,52.87
2018-11-21T07:37:40.872Z,53.37
2018-11-21T07:40:11.031Z,52.23
2018-11-21T07:42:39.448Z,53.20
2018-11-21T07:45:12.909Z,51.57
2018-11-21T07:47:41.809Z,49.07
2018-11-21T07:50:13.035Z,49.43
2018-11-21T07:52:41.732Z,50.27
2018-11-21T07:55:11.426Z,48.47
2018-11-21T07:57:41.247Z,49.10
2018-11-21T08:01:13.468Z,49.67
2018-11-21T08:03:46.721Z,48.33
2018-11-21T08:06:39.983Z,51.30
2018-11-21T08:09:27.924Z,53.43
2018-11-21T08:12:15.452Z,53.33
2018-11-21T08:15:19.075Z,51.07
2018-11-21T08:18:10.065Z,54.23
2018-11-21T08:21:16.163Z,52.67
2018-11-21T08:23:57.171Z,48.13
2018-11-21T08:26:50.509Z,49.10
2018-11-21T08:29:18.982Z,51.20
2018-11-21T08:31:48.008Z,54.10
2018-11-21T08:34:16.424Z,54.37
2018-11-21T08:36:45.187Z,51.00
2018-11-21T08:39:13.566Z,52.03
2018-11-21T08:41:41.943Z,51.30
2018-11-21T08:44:10.287Z,50.53
2018-11-21T08:46:38.690Z,50.00
2018-11-21T08:49:07.081Z,51.33
2018-11-21T08:51:35.460Z,49.17
2018-11-21T08:54:03.816Z,46.43
2018-11-21T08:56:32.536Z,47.30
2018-11-21T08:59:00.558Z,48.70
2018-11-21T09:01:29.279Z,47.83
2018-11-21T09:03:57.675Z,50.00
2018-11-21T09:06:26.333Z,48.43
2018-11-21T09:08:54.774Z,48.03
2018-11-21T09:11:23.135Z,47.83
2018-11-21T09:13:53.250Z,49.83
2018-11-21T09:16:19.874Z,45.80
2018-11-21T09:18:48.276Z,45.93
2018-11-21T09:21:16.631Z,44.33
2018-11-21T09:23:45.062Z,44.57
2018-11-21T09:26:13.393Z,44.40
2018-11-21T09:28:42.120Z,45.37
2018-11-21T09:31:10.467Z,42.53
2018-11-21T09:33:38.826Z,43.47
2018-11-21T09:36:07.527Z,41.47
2018-11-21T09:38:36.606Z,43.10
2018-11-21T09:41:05.269Z,43.60
2018-11-21T09:43:33.606Z,43.57
2018-11-21T09:46:02.759Z,43.20
2018-11-21T09:48:31.120Z,42.67
2018-11-21T09:50:59.844Z,42.13
2018-11-21T09:53:28.542Z,42.63
2018-11-21T09:55:56.889Z,41.03
2018-11-21T09:58:25.257Z,41.03
2018-11-21T10:01:30.252Z,39.73
2018-11-21T10:04:01.010Z,40.13
2018-11-21T10:06:29.979Z,39.03
2018-11-21T10:09:00.203Z,38.47
2018-11-21T10:11:29.288Z,36.90
2018-11-21T10:13:57.694Z,36.93
2018-11-21T10:16:26.073Z,39.17
2018-11-21T10:18:55.851Z,35.87
2018-11-21T10:21:25.862Z,35.53
2018-11-21T10:23:54.609Z,34.00
2018-11-21T10:26:23.345Z,32.07
2018-11-21T10:28:52.446Z,32.00
2018-11-21T10:31:20.820Z,31.60
2018-11-21T10:33:49.241Z,31.27
2018-11-21T10:36:18.236Z,32.03
2018-11-21T10:38:47.010Z,32.60
2018-11-21T10:41:15.394Z,32.40
2018-11-21T10:43:44.236Z,32.33
2018-11-21T10:46:13.456Z,32.57
2018-11-21T10:48:42.417Z,31.03
2018-11-21T10:51:10.778Z,30.23
2018-11-21T10:53:40.604Z,31.23
2018-11-21T10:56:08.995Z,30.40
2018-11-21T10:58:37.361Z,29.47
2018-11-21T11:01:27.876Z,29.87
2018-11-21T11:04:09.421Z,29.37
2018-11-21T11:07:09.326Z,29.27
2018-11-21T11:09:56.893Z,29.63
2018-11-21T11:12:47.460Z,27.77
2018-11-21T11:15:28.793Z,29.73
2018-11-21T11:18:09.229Z,28.03
2018-11-21T11:21:11.849Z,28.27
2018-11-21T11:23:53.188Z,26.70
2018-11-21T11:26:39.320Z,27.80
2018-11-21T11:29:30.130Z,28.50
2018-11-21T11:32:16.300Z,27.97
2018-11-21T11:35:03.850Z,26.77
2018-11-21T11:37:50.028Z,30.27
2018-11-21T11:40:46.307Z,26.63
2018-11-21T11:43:48.907Z,26.00
2018-11-21T11:46:38.954Z,27.53
2018-11-21T11:49:25.270Z,26.80
2018-11-21T11:52:11.786Z,25.87
2018-11-21T11:55:11.270Z,27.67
2018-11-21T11:58:07.927Z,26.10
2018-11-21T12:01:11.155Z,25.60
2018-11-21T12:03:58.763Z,25.07
2018-11-21T12:06:46.292Z,25.23
2018-11-21T12:09:42.620Z,23.57
2018-11-21T12:12:19.261Z,22.97
2018-11-21T12:15:21.947Z,23.73
2018-11-21T12:18:15.769Z,24.70
2018-11-21T12:21:01.912Z,24.87
2018-11-21T12:23:55.378Z,24.27
2018-11-21T12:26:36.437Z,23.90
2018-11-21T12:29:33.128Z,22.77
2018-11-21T12:32:20.644Z,25.17
2018-11-21T12:35:08.604Z,23.43
2018-11-21T12:38:02.065Z,23.00
2018-11-21T12:40:48.112Z,25.07
2018-11-21T12:43:41.607Z,25.27
2018-11-21T12:46:40.854Z,24.50
2018-11-21T12:49:37.353Z,24.80
